Elrick, Iowa
Current Conditions -  °F | °C
As of 1:55 PM on Thursday 30 Oct 2014 (Local Time) from KMUT Reporting Station
Few Clouds Few Clouds  
Wind Chill: 54°   Ceiling: Unl
Heat Index: 54°   Visibility: 10mi
Dew Point: 37°   Wind: 12mph
Humidity: 54%   Direction: 140°SE
Pressure: 30.03"   Gusts: NA
Location:  41.1602°N, 91.246°W
Report Text: KMUT 301855Z AUTO 14010KT 10SM FEW110 12/03 A3003 RMK AO2
Loading
Personal Weather Stations






























Interactive Weather Map
Tropical Storm Tracking
New forecast layout! Learn more

10-Day Weather Forecast

Advertisements
Track Severe Weather on mobile